createdAt,value
2023-04-06T00:00:31.799Z,8.18
2023-04-06T00:03:05.457Z,8.98
2023-04-06T00:05:39.025Z,7.97
2023-04-06T00:08:12.753Z,8.80
2023-04-06T00:10:46.757Z,8.05
2023-04-06T00:13:20.701Z,8.35
2023-04-06T00:15:54.280Z,9.25
2023-04-06T00:18:27.875Z,8.43
2023-04-06T00:21:01.438Z,8.28
2023-04-06T00:23:34.925Z,10.93
2023-04-06T00:26:08.664Z,8.50
2023-04-06T00:28:42.236Z,10.23
2023-04-06T00:31:15.714Z,10.20
2023-04-06T00:33:50.655Z,11.35
2023-04-06T00:36:24.197Z,9.98
2023-04-06T00:38:57.774Z,9.68
2023-04-06T00:41:31.236Z,10.20
2023-04-06T00:44:04.857Z,10.13
2023-04-06T00:46:38.787Z,11.53
2023-04-06T00:49:12.485Z,11.45
2023-04-06T00:51:46.546Z,9.60
2023-04-06T00:54:20.916Z,11.00
2023-04-06T00:56:54.982Z,9.48
2023-04-06T00:59:29.261Z,10.20
2023-04-06T01:02:03.692Z,10.08
2023-04-06T01:04:42.255Z,11.50
2023-04-06T01:07:17.200Z,11.05
2023-04-06T01:09:52.212Z,10.00
2023-04-06T01:12:27.378Z,11.30
2023-04-06T01:15:00.942Z,10.35
2023-04-06T01:17:35.395Z,12.20
2023-04-06T01:20:12.065Z,10.88
2023-04-06T01:22:45.971Z,10.78
2023-04-06T01:25:19.845Z,11.33
2023-04-06T01:27:54.900Z,11.88
2023-04-06T01:30:30.052Z,9.68
2023-04-06T01:33:05.455Z,10.53
2023-04-06T01:35:40.811Z,11.40
2023-04-06T01:38:24.994Z,10.63
2023-04-06T01:40:58.552Z,11.53
2023-04-06T01:43:35.572Z,9.80
2023-04-06T01:46:10.746Z,12.25
2023-04-06T01:48:45.830Z,10.35
2023-04-06T01:51:23.629Z,9.83
2023-04-06T01:54:01.818Z,10.78
2023-04-06T01:56:42.799Z,10.23
2023-04-06T01:59:24.230Z,9.90
2023-04-06T02:01:58.296Z,10.05
2023-04-06T02:04:32.261Z,11.12
2023-04-06T02:07:07.495Z,9.83
2023-04-06T02:09:45.739Z,10.85
2023-04-06T02:12:20.706Z,10.10
2023-04-06T02:14:54.505Z,9.98
2023-04-06T02:17:29.624Z,10.53
2023-04-06T02:20:03.485Z,10.20
2023-04-06T02:22:36.784Z,9.95
2023-04-06T02:25:11.713Z,10.78
2023-04-06T02:27:45.257Z,9.53
2023-04-06T02:30:18.871Z,10.68
2023-04-06T02:32:52.643Z,9.98
2023-04-06T02:35:27.158Z,11.10
2023-04-06T02:38:00.938Z,10.75
2023-04-06T02:40:34.411Z,9.88
2023-04-06T02:43:09.844Z,9.70
2023-04-06T02:45:43.340Z,10.18
2023-04-06T02:48:17.738Z,10.75
2023-04-06T02:50:51.329Z,8.60
2023-04-06T02:53:24.818Z,11.15
2023-04-06T02:56:01.229Z,10.63
2023-04-06T02:58:36.309Z,9.05
2023-04-06T03:01:09.921Z,9.08
2023-04-06T03:03:44.040Z,9.95
2023-04-06T03:06:19.229Z,9.73
2023-04-06T03:08:54.263Z,9.85
2023-04-06T03:11:28.489Z,9.63
2023-04-06T03:14:02.434Z,9.15
2023-04-06T03:16:36.040Z,10.00
2023-04-06T03:19:10.391Z,9.65
2023-04-06T03:21:44.201Z,9.25
2023-04-06T03:24:18.359Z,10.48
2023-04-06T03:26:51.877Z,9.15
2023-04-06T03:29:26.600Z,10.08
2023-04-06T03:32:03.429Z,9.13
2023-04-06T03:34:44.433Z,9.18
2023-04-06T03:37:18.188Z,11.43
2023-04-06T03:39:56.335Z,10.95
2023-04-06T03:42:34.135Z,9.25
2023-04-06T03:45:11.831Z,11.48
2023-04-06T03:47:48.411Z,10.03
2023-04-06T03:50:23.635Z,9.63
2023-04-06T03:53:04.368Z,9.48
2023-04-06T03:55:37.927Z,9.55
2023-04-06T03:58:11.886Z,9.13
2023-04-06T04:03:30.539Z,10.50
2023-04-06T04:06:04.257Z,9.70
2023-04-06T04:08:39.295Z,10.08
2023-04-06T04:11:17.055Z,10.80
2023-04-06T04:13:52.189Z,11.43
2023-04-06T04:16:25.921Z,10.32
2023-04-06T04:19:00.096Z,9.18
2023-04-06T04:21:34.428Z,9.23
2023-04-06T04:24:10.385Z,8.45
2023-04-06T04:26:44.397Z,8.68
2023-04-06T04:29:19.862Z,8.80
2023-04-06T04:31:53.694Z,8.73
2023-04-06T04:34:28.252Z,8.98
2023-04-06T04:37:01.789Z,9.78
2023-04-06T04:39:36.902Z,9.40
2023-04-06T04:42:12.156Z,9.58
2023-04-06T04:44:47.191Z,8.15
2023-04-06T04:47:22.453Z,7.50
2023-04-06T04:49:56.168Z,8.93
2023-04-06T04:52:39.793Z,8.25
2023-04-06T04:55:14.892Z,9.08
2023-04-06T04:57:52.717Z,7.62
2023-04-06T05:00:30.100Z,7.67
2023-04-06T05:03:09.900Z,7.87
2023-04-06T05:08:26.852Z,7.05
2023-04-06T05:11:02.209Z,8.73
2023-04-06T05:13:38.527Z,6.95
2023-04-06T05:16:19.698Z,6.97
2023-04-06T05:18:54.138Z,6.30
2023-04-06T05:21:29.310Z,7.00
2023-04-06T05:24:10.802Z,6.12
2023-04-06T05:26:44.816Z,6.10
2023-04-06T05:29:22.368Z,6.70
2023-04-06T05:31:56.901Z,5.50
2023-04-06T05:34:30.919Z,5.17
2023-04-06T05:37:08.208Z,5.20
2023-04-06T05:39:43.209Z,4.55
2023-04-06T05:42:19.060Z,5.50
2023-04-06T05:44:54.141Z,4.97
2023-04-06T05:47:27.893Z,4.75
2023-04-06T05:50:03.031Z,5.30
2023-04-06T05:52:38.483Z,4.60
2023-04-06T05:55:13.774Z,4.67
2023-04-06T05:57:48.624Z,5.08
2023-04-06T06:00:24.253Z,4.92
2023-04-06T06:03:03.939Z,4.28
2023-04-06T06:05:38.046Z,4.42
2023-04-06T06:08:13.063Z,4.90
2023-04-06T06:10:46.976Z,4.45
2023-04-06T06:13:22.217Z,4.30
2023-04-06T06:15:57.079Z,3.85
2023-04-06T06:18:31.723Z,4.75
2023-04-06T06:21:06.321Z,4.30
2023-04-06T06:23:42.281Z,4.05
2023-04-06T06:26:16.756Z,4.22
2023-04-06T06:28:50.901Z,3.95
2023-04-06T06:31:25.789Z,3.42
2023-04-06T06:34:00.729Z,4.00
2023-04-06T06:36:36.599Z,3.40
2023-04-06T06:39:11.987Z,3.35
2023-04-06T06:41:45.864Z,2.67
2023-04-06T06:44:19.511Z,3.30
2023-04-06T06:46:53.168Z,3.65
2023-04-06T06:49:26.736Z,3.30
2023-04-06T06:52:00.538Z,3.10
2023-04-06T06:54:34.168Z,2.98
2023-04-06T06:57:07.634Z,3.45
2023-04-06T06:59:41.375Z,3.17
2023-04-06T07:02:15.705Z,3.25
2023-04-06T07:04:52.557Z,3.58
2023-04-06T07:07:26.440Z,2.98
2023-04-06T07:10:00.139Z,2.72
2023-04-06T07:12:35.964Z,2.52
2023-04-06T07:15:11.619Z,3.15
2023-04-06T07:17:46.659Z,2.70
2023-04-06T07:20:20.771Z,3.27
2023-04-06T07:22:54.998Z,2.98
2023-04-06T07:25:29.825Z,2.52
2023-04-06T07:28:03.633Z,2.42
2023-04-06T07:30:39.311Z,3.02
2023-04-06T07:33:14.447Z,2.10
2023-04-06T07:35:49.064Z,3.00
2023-04-06T07:38:22.764Z,3.15
2023-04-06T07:40:57.524Z,2.95
2023-04-06T07:43:31.756Z,3.37
2023-04-06T07:46:05.635Z,2.90
2023-04-06T07:48:39.617Z,2.83
2023-04-06T07:51:16.199Z,2.58
2023-04-06T07:53:50.440Z,3.00
2023-04-06T07:56:23.991Z,3.30
2023-04-06T07:58:58.254Z,3.25
2023-04-06T08:01:32.325Z,2.52
2023-04-06T08:04:12.550Z,2.60
2023-04-06T08:09:54.992Z,2.93
2023-04-06T08:12:28.089Z,2.58
2023-04-06T08:15:01.740Z,2.22
2023-04-06T08:17:36.329Z,2.65
2023-04-06T08:20:11.184Z,2.67
2023-04-06T08:22:44.268Z,2.12
2023-04-06T08:25:17.564Z,1.50
2023-04-06T08:27:50.994Z,1.62
2023-04-06T08:30:24.354Z,2.10
2023-04-06T08:32:57.703Z,2.05
2023-04-06T08:35:31.656Z,1.87
2023-04-06T08:38:04.799Z,2.85
2023-04-06T08:40:40.707Z,2.50
2023-04-06T08:43:16.797Z,1.62
2023-04-06T08:45:50.546Z,1.73
2023-04-06T08:48:26.016Z,2.30
2023-04-06T08:50:59.437Z,2.10
2023-04-06T08:53:32.652Z,1.85
2023-04-06T08:56:06.808Z,2.52
2023-04-06T08:58:42.155Z,2.33
2023-04-06T09:01:18.386Z,2.00
2023-04-06T09:03:53.635Z,2.40
2023-04-06T09:06:28.558Z,2.30
2023-04-06T09:09:01.895Z,2.47
2023-04-06T09:11:47.614Z,1.47
2023-04-06T09:14:23.156Z,8.53
2023-04-06T09:16:56.305Z,1.87
2023-04-06T09:19:29.437Z,2.00
2023-04-06T09:22:08.963Z,2.25
2023-04-06T09:24:46.640Z,1.98
2023-04-06T09:27:20.023Z,1.95
2023-04-06T09:29:53.262Z,2.33
2023-04-06T09:32:26.668Z,2.10
2023-04-06T09:35:10.944Z,1.72
2023-04-06T09:37:44.193Z,1.85
2023-04-06T09:40:20.361Z,2.20
2023-04-06T09:42:56.669Z,2.00
2023-04-06T09:45:31.972Z,1.92
2023-04-06T09:48:07.853Z,1.98
2023-04-06T09:50:42.283Z,2.30
2023-04-06T09:53:21.336Z,1.90
2023-04-06T09:55:58.330Z,2.90
2023-04-06T09:58:36.364Z,2.27
2023-04-06T10:01:12.849Z,2.65
2023-04-06T10:03:52.394Z,2.58
2023-04-06T10:06:28.601Z,2.17
2023-04-06T10:09:03.840Z,2.17
2023-04-06T10:11:40.163Z,2.10
2023-04-06T10:14:17.052Z,3.62
2023-04-06T10:16:54.095Z,2.35
2023-04-06T10:19:30.158Z,3.85
2023-04-06T10:22:05.401Z,2.20
2023-04-06T10:24:40.311Z,2.17
2023-04-06T10:27:13.638Z,2.95
2023-04-06T10:29:49.809Z,2.17
2023-04-06T10:32:27.320Z,2.33
2023-04-06T10:35:14.875Z,2.22
2023-04-06T10:37:54.036Z,1.90
2023-04-06T10:40:28.616Z,2.02
2023-04-06T10:43:13.647Z,2.95
2023-04-06T10:46:00.011Z,1.75
2023-04-06T10:48:42.790Z,2.60
2023-04-06T10:51:17.817Z,1.80
2023-04-06T10:53:55.508Z,2.20
2023-04-06T10:56:37.828Z,2.47
2023-04-06T10:59:26.310Z,2.02
2023-04-06T11:02:07.396Z,1.90
2023-04-06T11:04:49.757Z,1.75
2023-04-06T11:07:32.810Z,1.57
2023-04-06T11:10:16.868Z,1.62
2023-04-06T11:12:47.982Z,1.80
2023-04-06T11:15:25.613Z,2.22
2023-04-06T11:18:02.550Z,1.77
2023-04-06T11:20:38.171Z,1.98
2023-04-06T11:23:45.897Z,1.80
2023-04-06T11:26:39.673Z,1.82
2023-04-06T11:29:23.405Z,1.40
2023-04-06T11:32:04.634Z,2.00
2023-04-06T11:34:42.926Z,1.70
2023-04-06T11:37:18.534Z,1.98
2023-04-06T11:39:56.248Z,2.40
2023-04-06T11:42:32.340Z,2.10
2023-04-06T11:45:10.530Z,2.62
2023-04-06T11:47:45.308Z,2.60
2023-04-06T11:50:26.540Z,1.80
2023-04-06T11:53:05.195Z,1.90
2023-04-06T11:55:49.068Z,1.40
2023-04-06T11:58:24.946Z,1.70
2023-04-06T12:01:08.951Z,2.15
2023-04-06T12:03:44.004Z,2.27
2023-04-06T12:06:22.688Z,1.22
2023-04-06T12:09:04.551Z,1.40
2023-04-06T12:11:38.936Z,2.65
2023-04-06T12:14:12.229Z,1.87
2023-04-06T12:16:55.040Z,1.40
2023-04-06T12:19:31.152Z,1.70
2023-04-06T12:22:07.193Z,1.82
2023-04-06T12:27:16.666Z,1.30
2023-04-06T12:32:41.260Z,2.08
2023-04-06T12:35:16.711Z,1.90
2023-04-06T12:40:54.991Z,1.15
2023-04-06T12:43:28.327Z,1.40
2023-04-06T12:46:01.883Z,1.82
2023-04-06T12:48:35.307Z,1.50
2023-04-06T12:51:10.889Z,1.15
2023-04-06T12:53:44.445Z,1.52
2023-04-06T12:56:20.130Z,1.60
2023-04-06T12:58:54.913Z,2.22
2023-04-06T13:01:30.232Z,1.67
2023-04-06T13:04:03.846Z,2.05
2023-04-06T13:06:37.220Z,1.12
2023-04-06T13:09:10.975Z,1.15
2023-04-06T13:11:44.315Z,1.55
2023-04-06T13:14:17.875Z,1.42
2023-04-06T13:16:52.396Z,1.35
2023-04-06T13:19:27.954Z,1.15
2023-04-06T13:33:52.684Z,1.20
2023-04-06T13:36:25.890Z,1.30
2023-04-06T13:39:00.004Z,0.72
2023-04-06T13:41:33.278Z,1.65
2023-04-06T13:44:06.510Z,1.25
2023-04-06T13:46:39.925Z,1.22
2023-04-06T13:49:13.160Z,0.88
2023-04-06T13:51:46.326Z,1.40
2023-04-06T13:54:23.250Z,0.85
2023-04-06T13:56:56.398Z,1.27
2023-04-06T13:59:35.455Z,0.95
2023-04-06T14:02:13.335Z,1.32
2023-04-06T14:04:46.496Z,1.12
2023-04-06T14:07:19.811Z,1.77
2023-04-06T14:09:53.104Z,0.93
2023-04-06T14:12:26.514Z,0.95
2023-04-06T14:15:01.797Z,1.20
2023-04-06T14:17:36.343Z,0.95
2023-04-06T14:20:15.276Z,2.67
2023-04-06T14:22:50.501Z,1.00
2023-04-06T14:25:24.232Z,1.00
2023-04-06T14:27:57.945Z,0.80
2023-04-06T14:30:33.214Z,0.88
2023-04-06T14:33:06.805Z,0.72
2023-04-06T14:35:42.741Z,1.02
2023-04-06T14:38:16.463Z,0.85
2023-04-06T14:40:51.671Z,1.02
2023-04-06T14:46:28.921Z,1.00
2023-04-06T14:49:02.299Z,0.80
2023-04-06T14:51:38.611Z,0.80
2023-04-06T14:54:11.945Z,0.88
2023-04-06T14:56:45.066Z,0.88
2023-04-06T14:59:18.226Z,0.80
2023-04-06T15:01:52.555Z,0.85
2023-04-06T15:04:26.220Z,1.00
